sensor_id;sensor_type;location;lat;lon;timestamp;pressure;altitude;pressure_sealevel;temperature;humidity
35778;BME280;21899;42.662;23.316;2023-09-18T00:02:23;94894.84;;;17.91;100.00
35778;BME280;21899;42.662;23.316;2023-09-18T00:04:49;94888.47;;;17.81;100.00
35778;BME280;21899;42.662;23.316;2023-09-18T00:07:14;94893.03;;;17.84;100.00
35778;BME280;21899;42.662;23.316;2023-09-18T00:09:40;94878.44;;;17.78;100.00
35778;BME280;21899;42.662;23.316;2023-09-18T00:12:05;94879.09;;;17.86;100.00
35778;BME280;21899;42.662;23.316;2023-09-18T00:14:31;94884.34;;;17.93;100.00
35778;BME280;21899;42.662;23.316;2023-09-18T00:16:57;94887.88;;;17.90;100.00
35778;BME280;21899;42.662;23.316;2023-09-18T00:19:23;94877.22;;;17.83;100.00
35778;BME280;21899;42.662;23.316;2023-09-18T00:21:49;94878.44;;;17.78;100.00
35778;BME280;21899;42.662;23.316;2023-09-18T00:24:14;94872.91;;;17.66;100.00
35778;BME280;21899;42.662;23.316;2023-09-18T00:26:40;94875.34;;;17.80;100.00
35778;BME280;21899;42.662;23.316;2023-09-18T00:29:05;94885.28;;;17.86;100.00
35778;BME280;21899;42.662;23.316;2023-09-18T00:31:30;94886.00;;;17.87;100.00
35778;BME280;21899;42.662;23.316;2023-09-18T00:33:56;94875.41;;;17.76;100.00
35778;BME280;21899;42.662;23.316;2023-09-18T00:36:21;94894.50;;;17.89;100.00
35778;BME280;21899;42.662;23.316;2023-09-18T00:38:46;94891.38;;;17.90;100.00
35778;BME280;21899;42.662;23.316;2023-09-18T00:41:12;94886.28;;;17.92;100.00
35778;BME280;21899;42.662;23.316;2023-09-18T00:43:37;94893.94;;;17.97;100.00
35778;BME280;21899;42.662;23.316;2023-09-18T00:46:03;94894.94;;;18.03;100.00
35778;BME280;21899;42.662;23.316;2023-09-18T00:48:29;94896.81;;;18.06;100.00
35778;BME280;21899;42.662;23.316;2023-09-18T00:50:55;94893.38;;;18.06;100.00
35778;BME280;21899;42.662;23.316;2023-09-18T00:53:23;94899.28;;;18.01;100.00
35778;BME280;21899;42.662;23.316;2023-09-18T00:55:50;94894.88;;;18.07;100.00
35778;BME280;21899;42.662;23.316;2023-09-18T00:58:17;94895.50;;;18.14;100.00
35778;BME280;21899;42.662;23.316;2023-09-18T01:00:44;94902.38;;;18.19;100.00
35778;BME280;21899;42.662;23.316;2023-09-18T01:03:09;94914.88;;;18.13;100.00
35778;BME280;21899;42.662;23.316;2023-09-18T01:05:36;94906.13;;;18.05;100.00
35778;BME280;21899;42.662;23.316;2023-09-18T01:08:02;94909.56;;;18.09;100.00
35778;BME280;21899;42.662;23.316;2023-09-18T01:10:34;94909.56;;;18.09;100.00
35778;BME280;21899;42.662;23.316;2023-09-18T01:13:10;94910.22;;;18.13;100.00
35778;BME280;21899;42.662;23.316;2023-09-18T01:16:17;94907.34;;;18.04;100.00
35778;BME280;21899;42.662;23.316;2023-09-18T01:18:51;94913.50;;;18.05;100.00
35778;BME280;21899;42.662;23.316;2023-09-18T01:21:20;94909.47;;;17.93;100.00
35778;BME280;21899;42.662;23.316;2023-09-18T01:23:48;94912.97;;;17.94;100.00
35778;BME280;21899;42.662;23.316;2023-09-18T01:26:14;94910.66;;;17.92;100.00
35778;BME280;21899;42.662;23.316;2023-09-18T01:28:40;94909.41;;;17.97;100.00
35778;BME280;21899;42.662;23.316;2023-09-18T01:31:05;94908.81;;;17.89;100.00
35778;BME280;21899;42.662;23.316;2023-09-18T01:33:31;94911.50;;;17.89;100.00
35778;BME280;21899;42.662;23.316;2023-09-18T01:35:57;94909.28;;;17.84;100.00
35778;BME280;21899;42.662;23.316;2023-09-18T01:38:25;94898.53;;;17.81;100.00
35778;BME280;21899;42.662;23.316;2023-09-18T01:40:52;94899.44;;;17.74;100.00
35778;BME280;21899;42.662;23.316;2023-09-18T01:43:19;94901.72;;;17.76;100.00
35778;BME280;21899;42.662;23.316;2023-09-18T01:45:44;94904.72;;;17.81;100.00
35778;BME280;21899;42.662;23.316;2023-09-18T01:48:11;94912.47;;;17.79;100.00
35778;BME280;21899;42.662;23.316;2023-09-18T01:50:37;94903.75;;;17.91;100.00
35778;BME280;21899;42.662;23.316;2023-09-18T01:53:02;94911.50;;;17.89;100.00
35778;BME280;21899;42.662;23.316;2023-09-18T01:55:28;94899.78;;;17.96;100.00
35778;BME280;21899;42.662;23.316;2023-09-18T01:57:55;94908.56;;;18.00;100.00
35778;BME280;21899;42.662;23.316;2023-09-18T02:00:21;94902.91;;;17.94;100.00
35778;BME280;21899;42.662;23.316;2023-09-18T02:02:46;94908.50;;;17.84;100.00
35778;BME280;21899;42.662;23.316;2023-09-18T02:05:12;94917.06;;;17.82;100.00
35778;BME280;21899;42.662;23.316;2023-09-18T02:07:37;94906.38;;;17.75;100.00
35778;BME280;21899;42.662;23.316;2023-09-18T02:10:03;94915.69;;;17.74;100.00
35778;BME280;21899;42.662;23.316;2023-09-18T02:12:29;94908.81;;;17.70;100.00
35778;BME280;21899;42.662;23.316;2023-09-18T02:14:54;94911.44;;;17.73;100.00
35778;BME280;21899;42.662;23.316;2023-09-18T02:17:22;94908.53;;;17.64;100.00
35778;BME280;21899;42.662;23.316;2023-09-18T02:19:48;94913.94;;;17.64;100.00
35778;BME280;21899;42.662;23.316;2023-09-18T02:22:13;94901.19;;;17.65;100.00
35778;BME280;21899;42.662;23.316;2023-09-18T02:24:38;94903.47;;;17.66;100.00
35778;BME280;21899;42.662;23.316;2023-09-18T02:27:04;94907.56;;;17.74;100.00
35778;BME280;21899;42.662;23.316;2023-09-18T02:29:30;94910.94;;;17.78;100.00
35778;BME280;21899;42.662;23.316;2023-09-18T02:31:56;94909.44;;;17.77;100.00
35778;BME280;21899;42.662;23.316;2023-09-18T02:34:21;94915.06;;;17.86;100.00
35778;BME280;21899;42.662;23.316;2023-09-18T02:36:47;94920.66;;;17.95;100.00
35778;BME280;21899;42.662;23.316;2023-09-18T02:39:12;94914.91;;;17.93;100.00
35778;BME280;21899;42.662;23.316;2023-09-18T02:41:38;94910.13;;;18.01;100.00
35778;BME280;21899;42.662;23.316;2023-09-18T02:44:03;94909.75;;;17.99;100.00
35778;BME280;21899;42.662;23.316;2023-09-18T02:46:29;94890.13;;;17.75;100.00
35778;BME280;21899;42.662;23.316;2023-09-18T02:48:55;94907.84;;;17.80;100.00
35778;BME280;21899;42.662;23.316;2023-09-18T02:51:20;94910.25;;;17.74;100.00
35778;BME280;21899;42.662;23.316;2023-09-18T02:53:46;94904.31;;;17.63;100.00
35778;BME280;21899;42.662;23.316;2023-09-18T02:56:12;94905.34;;;17.69;100.00
35778;BME280;21899;42.662;23.316;2023-09-18T02:58:37;94905.75;;;17.68;100.00
35778;BME280;21899;42.662;23.316;2023-09-18T03:01:02;94909.78;;;17.79;100.00
35778;BME280;21899;42.662;23.316;2023-09-18T03:03:30;94920.78;;;17.88;100.00
35778;BME280;21899;42.662;23.316;2023-09-18T03:06:03;94907.97;;;17.92;100.00
35778;BME280;21899;42.662;23.316;2023-09-18T03:08:28;94911.75;;;17.95;100.00
35778;BME280;21899;42.662;23.316;2023-09-18T03:10:54;94918.88;;;17.89;100.00
35778;BME280;21899;42.662;23.316;2023-09-18T03:13:19;94915.88;;;17.83;100.00
35778;BME280;21899;42.662;23.316;2023-09-18T03:15:45;94913.38;;;17.73;100.00
35778;BME280;21899;42.662;23.316;2023-09-18T03:18:12;94905.13;;;17.80;100.00
35778;BME280;21899;42.662;23.316;2023-09-18T03:20:38;94902.69;;;17.66;100.00
35778;BME280;21899;42.662;23.316;2023-09-18T03:23:03;94908.03;;;17.69;100.00
35778;BME280;21899;42.662;23.316;2023-09-18T03:25:29;94911.34;;;17.57;100.00
35778;BME280;21899;42.662;23.316;2023-09-18T03:27:56;94913.50;;;17.46;100.00
35778;BME280;21899;42.662;23.316;2023-09-18T03:30:23;94904.81;;;17.35;100.00
35778;BME280;21899;42.662;23.316;2023-09-18T03:32:49;94900.91;;;17.36;100.00
35778;BME280;21899;42.662;23.316;2023-09-18T03:35:14;94893.19;;;17.35;100.00
35778;BME280;21899;42.662;23.316;2023-09-18T03:37:51;94891.75;;;17.30;100.00
35778;BME280;21899;42.662;23.316;2023-09-18T03:40:18;94898.44;;;17.22;100.00
35778;BME280;21899;42.662;23.316;2023-09-18T03:42:44;94882.72;;;17.17;100.00
35778;BME280;21899;42.662;23.316;2023-09-18T03:45:10;94893.38;;;17.24;100.00
35778;BME280;21899;42.662;23.316;2023-09-18T03:47:37;94884.72;;;17.13;100.00
35778;BME280;21899;42.662;23.316;2023-09-18T03:50:08;94877.47;;;17.07;100.00
35778;BME280;21899;42.662;23.316;2023-09-18T03:52:34;94887.53;;;17.06;100.00
35778;BME280;21899;42.662;23.316;2023-09-18T03:54:59;94873.78;;;16.97;100.00
35778;BME280;21899;42.662;23.316;2023-09-18T03:57:25;94878.38;;;17.00;100.00
35778;BME280;21899;42.662;23.316;2023-09-18T03:59:51;94886.59;;;16.93;100.00
35778;BME280;21899;42.662;23.316;2023-09-18T04:02:16;94883.66;;;17.07;100.00
35778;BME280;21899;42.662;23.316;2023-09-18T04:04:42;94883.88;;;17.16;100.00
35778;BME280;21899;42.662;23.316;2023-09-18T04:07:08;94885.69;;;17.23;100.00
35778;BME280;21899;42.662;23.316;2023-09-18T04:09:34;94878.81;;;17.18;100.00
35778;BME280;21899;42.662;23.316;2023-09-18T04:12:03;94883.75;;;17.23;100.00
35778;BME280;21899;42.662;23.316;2023-09-18T04:14:31;94886.25;;;17.34;100.00
35778;BME280;21899;42.662;23.316;2023-09-18T04:16:56;94895.44;;;17.40;100.00
35778;BME280;21899;42.662;23.316;2023-09-18T04:19:22;94892.31;;;17.41;100.00
35778;BME280;21899;42.662;23.316;2023-09-18T04:21:47;94900.06;;;17.39;100.00
35778;BME280;21899;42.662;23.316;2023-09-18T04:24:13;94901.63;;;17.40;100.00
35778;BME280;21899;42.662;23.316;2023-09-18T04:26:38;94906.19;;;17.43;100.00
35778;BME280;21899;42.662;23.316;2023-09-18T04:29:04;94911.56;;;17.47;100.00
35778;BME280;21899;42.662;23.316;2023-09-18T04:31:30;94913.72;;;17.55;100.00
35778;BME280;21899;42.662;23.316;2023-09-18T04:33:56;94908.16;;;17.62;100.00
35778;BME280;21899;42.662;23.316;2023-09-18T04:36:21;94912.47;;;17.60;100.00
35778;BME280;21899;42.662;23.316;2023-09-18T04:38:47;94914.22;;;17.70;100.00
35778;BME280;21899;42.662;23.316;2023-09-18T04:41:13;94903.22;;;17.77;100.00
35778;BME280;21899;42.662;23.316;2023-09-18T04:43:40;94917.13;;;17.98;100.00
35778;BME280;21899;42.662;23.316;2023-09-18T04:46:06;94912.75;;;18.04;100.00
35778;BME280;21899;42.662;23.316;2023-09-18T04:48:32;94920.91;;;18.20;100.00
35778;BME280;21899;42.662;23.316;2023-09-18T04:50:58;94918.63;;;18.19;100.00
35778;BME280;21899;42.662;23.316;2023-09-18T04:53:24;94913.81;;;18.27;100.00
35778;BME280;21899;42.662;23.316;2023-09-18T04:55:50;94910.50;;;18.19;100.00
35778;BME280;21899;42.662;23.316;2023-09-18T04:58:17;94918.59;;;18.39;100.00
35778;BME280;21899;42.662;23.316;2023-09-18T05:00:42;94917.50;;;18.36;100.00
35778;BME280;21899;42.662;23.316;2023-09-18T05:03:09;94907.88;;;18.51;100.00
35778;BME280;21899;42.662;23.316;2023-09-18T05:05:35;94908.13;;;18.41;100.00
35778;BME280;21899;42.662;23.316;2023-09-18T05:08:06;94904.56;;;18.60;100.00
35778;BME280;21899;42.662;23.316;2023-09-18T05:10:35;94909.50;;;18.81;100.00
35778;BME280;21899;42.662;23.316;2023-09-18T05:13:00;94898.16;;;19.02;100.00
35778;BME280;21899;42.662;23.316;2023-09-18T05:15:26;94904.44;;;18.99;100.00
35778;BME280;21899;42.662;23.316;2023-09-18T05:17:54;94919.78;;;19.05;100.00
35778;BME280;21899;42.662;23.316;2023-09-18T05:20:22;94916.25;;;19.21;100.00
35778;BME280;21899;42.662;23.316;2023-09-18T05:22:50;94924.06;;;19.19;100.00
35778;BME280;21899;42.662;23.316;2023-09-18T05:25:18;94918.47;;;19.26;100.00
35778;BME280;21899;42.662;23.316;2023-09-18T05:27:43;94921.47;;;19.31;100.00
35778;BME280;21899;42.662;23.316;2023-09-18T05:30:17;94928.81;;;19.47;100.00
35778;BME280;21899;42.662;23.316;2023-09-18T05:32:43;94930.25;;;19.80;100.00
35778;BME280;21899;42.662;23.316;2023-09-18T05:35:10;94932.06;;;19.71;100.00
35778;BME280;21899;42.662;23.316;2023-09-18T05:37:38;94926.78;;;19.80;100.00
35778;BME280;21899;42.662;23.316;2023-09-18T05:40:05;94933.53;;;19.88;100.00
35778;BME280;21899;42.662;23.316;2023-09-18T05:42:32;94929.44;;;20.08;100.00
35778;BME280;21899;42.662;23.316;2023-09-18T05:44:57;94926.72;;;20.08;100.00
35778;BME280;21899;42.662;23.316;2023-09-18T05:47:23;94926.31;;;20.10;100.00
35778;BME280;21899;42.662;23.316;2023-09-18T05:49:49;94932.41;;;20.14;100.00
35778;BME280;21899;42.662;23.316;2023-09-18T05:52:14;94930.50;;;19.98;100.00
35778;BME280;21899;42.662;23.316;2023-09-18T05:54:40;94936.53;;;20.06;100.00
35778;BME280;21899;42.662;23.316;2023-09-18T05:57:05;94930.41;;;20.30;100.00
35778;BME280;21899;42.662;23.316;2023-09-18T05:59:32;94938.38;;;20.62;100.00
35778;BME280;21899;42.662;23.316;2023-09-18T06:01:58;94934.03;;;20.52;100.00
35778;BME280;21899;42.662;23.316;2023-09-18T06:04:24;94941.66;;;20.57;100.00
35778;BME280;21899;42.662;23.316;2023-09-18T06:06:49;94918.69;;;20.58;100.00
35778;BME280;21899;42.662;23.316;2023-09-18T06:09:16;94927.81;;;20.90;100.00
35778;BME280;21899;42.662;23.316;2023-09-18T06:11:41;94936.63;;;21.06;100.00
35778;BME280;21899;42.662;23.316;2023-09-18T06:14:07;94931.44;;;21.46;100.00
35778;BME280;21899;42.662;23.316;2023-09-18T06:16:32;94931.59;;;21.64;100.00
35778;BME280;21899;42.662;23.316;2023-09-18T06:18:58;94926.22;;;21.39;99.78
35778;BME280;21899;42.662;23.316;2023-09-18T06:21:25;94937.47;;;21.16;100.00
35778;BME280;21899;42.662;23.316;2023-09-18T06:23:51;94936.00;;;21.02;100.00
35778;BME280;21899;42.662;23.316;2023-09-18T06:26:17;94938.38;;;21.13;100.00
35778;BME280;21899;42.662;23.316;2023-09-18T06:28:43;94946.16;;;21.36;100.00
35778;BME280;21899;42.662;23.316;2023-09-18T06:31:08;94942.38;;;21.67;100.00
35778;BME280;21899;42.662;23.316;2023-09-18T06:33:34;94946.47;;;21.84;98.96
35778;BME280;21899;42.662;23.316;2023-09-18T06:35:59;94941.84;;;21.94;97.74
35778;BME280;21899;42.662;23.316;2023-09-18T06:38:25;94951.09;;;21.96;96.66
35778;BME280;21899;42.662;23.316;2023-09-18T06:40:50;94941.72;;;22.19;95.95
35778;BME280;21899;42.662;23.316;2023-09-18T06:43:16;94943.31;;;22.29;94.39
35778;BME280;21899;42.662;23.316;2023-09-18T06:45:42;94934.28;;;22.20;93.72
35778;BME280;21899;42.662;23.316;2023-09-18T06:48:08;94945.16;;;22.41;93.32
35778;BME280;21899;42.662;23.316;2023-09-18T06:50:33;94944.69;;;22.55;91.82
35778;BME280;21899;42.662;23.316;2023-09-18T06:52:58;94947.19;;;22.50;91.59
35778;BME280;21899;42.662;23.316;2023-09-18T06:55:24;94949.97;;;22.80;90.25
35778;BME280;21899;42.662;23.316;2023-09-18T06:57:49;94944.22;;;22.87;89.58
35778;BME280;21899;42.662;23.316;2023-09-18T07:00:17;94947.88;;;22.93;88.32
35778;BME280;21899;42.662;23.316;2023-09-18T07:02:46;94942.16;;;22.70;89.96
35778;BME280;21899;42.662;23.316;2023-09-18T07:05:12;94943.53;;;22.65;89.66
35778;BME280;21899;42.662;23.316;2023-09-18T07:07:37;94934.78;;;22.49;90.64
35778;BME280;21899;42.662;23.316;2023-09-18T07:10:03;94944.59;;;22.46;90.42
35778;BME280;21899;42.662;23.316;2023-09-18T07:12:28;94949.00;;;22.44;90.71
35778;BME280;21899;42.662;23.316;2023-09-18T07:14:53;94949.25;;;22.58;90.88
35778;BME280;21899;42.662;23.316;2023-09-18T07:17:19;94945.25;;;22.81;88.89
35778;BME280;21899;42.662;23.316;2023-09-18T07:19:44;94945.09;;;22.84;88.37
35778;BME280;21899;42.662;23.316;2023-09-18T07:22:10;94950.34;;;22.70;88.41
35778;BME280;21899;42.662;23.316;2023-09-18T07:24:35;94951.28;;;22.45;89.38
35778;BME280;21899;42.662;23.316;2023-09-18T07:27:00;94947.75;;;22.66;89.69
35778;BME280;21899;42.662;23.316;2023-09-18T07:29:27;94940.25;;;22.27;90.99
35778;BME280;21899;42.662;23.316;2023-09-18T07:31:52;94950.59;;;22.32;91.22
35778;BME280;21899;42.662;23.316;2023-09-18T07:34:17;94950.66;;;22.20;91.80
35778;BME280;21899;42.662;23.316;2023-09-18T07:36:43;94945.72;;;22.27;91.46
35778;BME280;21899;42.662;23.316;2023-09-18T07:39:10;94952.38;;;22.26;90.25
35778;BME280;21899;42.662;23.316;2023-09-18T07:41:37;94948.66;;;22.11;90.84
35778;BME280;21899;42.662;23.316;2023-09-18T07:44:03;94943.69;;;22.19;91.23
35778;BME280;21899;42.662;23.316;2023-09-18T07:46:28;94941.56;;;22.44;90.73
35778;BME280;21899;42.662;23.316;2023-09-18T07:48:54;94942.16;;;22.39;89.49
35778;BME280;21899;42.662;23.316;2023-09-18T07:51:20;94954.69;;;22.58;89.24
35778;BME280;21899;42.662;23.316;2023-09-18T07:53:46;94949.81;;;22.84;87.84
35778;BME280;21899;42.662;23.316;2023-09-18T07:56:11;94944.97;;;22.88;86.84
35778;BME280;21899;42.662;23.316;2023-09-18T07:58:37;94940.78;;;23.05;86.29
35778;BME280;21899;42.662;23.316;2023-09-18T08:01:04;94947.09;;;22.84;85.64
35778;BME280;21899;42.662;23.316;2023-09-18T08:03:34;94939.94;;;22.77;86.75
35778;BME280;21899;42.662;23.316;2023-09-18T08:06:00;94932.09;;;22.97;86.10
35778;BME280;21899;42.662;23.316;2023-09-18T08:08:25;94934.88;;;23.06;86.21
35778;BME280;21899;42.662;23.316;2023-09-18T08:10:52;94931.63;;;23.30;85.04
35778;BME280;21899;42.662;23.316;2023-09-18T08:13:18;94928.59;;;23.46;83.71
35778;BME280;21899;42.662;23.316;2023-09-18T08:15:45;94935.47;;;23.50;82.07
35778;BME280;21899;42.662;23.316;2023-09-18T08:18:10;94932.88;;;23.56;82.28
35778;BME280;21899;42.662;23.316;2023-09-18T08:20:40;94928.03;;;23.69;80.41
35778;BME280;21899;42.662;23.316;2023-09-18T08:23:05;94925.00;;;23.76;79.59
35778;BME280;21899;42.662;23.316;2023-09-18T08:25:31;94931.38;;;23.73;80.57
35778;BME280;21899;42.662;23.316;2023-09-18T08:27:57;94926.22;;;23.57;79.47
35778;BME280;21899;42.662;23.316;2023-09-18T08:30:23;94925.63;;;23.62;79.78
35778;BME280;21899;42.662;23.316;2023-09-18T08:32:48;94920.75;;;23.57;80.89
35778;BME280;21899;42.662;23.316;2023-09-18T08:35:14;94919.22;;;23.65;79.79
35778;BME280;21899;42.662;23.316;2023-09-18T08:37:40;94921.34;;;23.88;79.17
35778;BME280;21899;42.662;23.316;2023-09-18T08:40:09;94913.44;;;23.81;79.10
35778;BME280;21899;42.662;23.316;2023-09-18T08:42:36;94910.25;;;23.64;79.42
35778;BME280;21899;42.662;23.316;2023-09-18T08:45:07;94904.66;;;23.68;79.71
35778;BME280;21899;42.662;23.316;2023-09-18T08:47:34;94913.00;;;23.64;79.42
35778;BME280;21899;42.662;23.316;2023-09-18T08:50:01;94898.88;;;23.66;79.73
35778;BME280;21899;42.662;23.316;2023-09-18T08:52:27;94896.44;;;23.86;78.36
35778;BME280;21899;42.662;23.316;2023-09-18T08:54:53;94891.75;;;23.86;78.11
35778;BME280;21899;42.662;23.316;2023-09-18T08:57:19;94903.41;;;23.96;78.49
35778;BME280;21899;42.662;23.316;2023-09-18T08:59:47;94893.88;;;23.91;76.51
35778;BME280;21899;42.662;23.316;2023-09-18T09:02:13;94898.28;;;23.98;76.66
35778;BME280;21899;42.662;23.316;2023-09-18T09:04:39;94894.03;;;24.06;76.50
35778;BME280;21899;42.662;23.316;2023-09-18T09:07:05;94899.19;;;24.13;75.54
35778;BME280;21899;42.662;23.316;2023-09-18T09:09:30;94890.63;;;24.29;74.03
35778;BME280;21899;42.662;23.316;2023-09-18T09:11:56;94897.84;;;24.50;74.31
35778;BME280;21899;42.662;23.316;2023-09-18T09:14:22;94905.09;;;24.71;73.08
35778;BME280;21899;42.662;23.316;2023-09-18T09:16:54;94904.50;;;24.67;72.02
35778;BME280;21899;42.662;23.316;2023-09-18T09:19:31;94893.88;;;24.60;70.63
35778;BME280;21899;42.662;23.316;2023-09-18T09:21:58;94889.31;;;24.57;70.35
35778;BME280;21899;42.662;23.316;2023-09-18T09:24:42;94894.69;;;24.42;68.82
35778;BME280;21899;42.662;23.316;2023-09-18T09:27:11;94887.38;;;24.39;69.63
35778;BME280;21899;42.662;23.316;2023-09-18T09:29:39;94885.34;;;24.58;69.16
35778;BME280;21899;42.662;23.316;2023-09-18T09:32:18;94888.06;;;24.67;69.18
35778;BME280;21899;42.662;23.316;2023-09-18T09:34:44;94881.56;;;24.97;68.98
35778;BME280;21899;42.662;23.316;2023-09-18T09:37:10;94875.09;;;25.09;67.63
35778;BME280;21899;42.662;23.316;2023-09-18T09:39:49;94881.59;;;24.88;63.85
35778;BME280;21899;42.662;23.316;2023-09-18T09:42:19;94872.25;;;24.71;65.20
35778;BME280;21899;42.662;23.316;2023-09-18T09:45:11;94879.69;;;25.03;64.64
35778;BME280;21899;42.662;23.316;2023-09-18T09:47:37;94875.06;;;25.18;64.30
35778;BME280;21899;42.662;23.316;2023-09-18T09:50:13;94882.25;;;25.39;63.38
35778;BME280;21899;42.662;23.316;2023-09-18T09:52:48;94877.22;;;25.61;63.13
35778;BME280;21899;42.662;23.316;2023-09-18T09:55:22;94872.44;;;25.47;61.42
35778;BME280;21899;42.662;23.316;2023-09-18T09:57:49;94869.34;;;25.54;61.94
35778;BME280;21899;42.662;23.316;2023-09-18T10:00:15;94870.19;;;25.60;62.64
35778;BME280;21899;42.662;23.316;2023-09-18T10:02:54;94862.28;;;25.77;61.76
35778;BME280;21899;42.662;23.316;2023-09-18T10:05:22;94867.22;;;25.88;61.49
35778;BME280;21899;42.662;23.316;2023-09-18T10:07:50;94865.78;;;26.16;59.97
35778;BME280;21899;42.662;23.316;2023-09-18T10:10:16;94866.88;;;26.38;59.20
35778;BME280;21899;42.662;23.316;2023-09-18T10:12:43;94870.09;;;26.51;58.46
35778;BME280;21899;42.662;23.316;2023-09-18T10:15:11;94866.97;;;26.73;57.84
35778;BME280;21899;42.662;23.316;2023-09-18T10:17:42;94860.03;;;26.92;56.70
35778;BME280;21899;42.662;23.316;2023-09-18T10:20:12;94862.53;;;26.75;52.40
35778;BME280;21899;42.662;23.316;2023-09-18T10:22:49;94860.13;;;26.83;53.12
35778;BME280;21899;42.662;23.316;2023-09-18T10:25:21;94863.53;;;26.78;51.74
35778;BME280;21899;42.662;23.316;2023-09-18T10:27:48;94859.50;;;26.59;52.07
35778;BME280;21899;42.662;23.316;2023-09-18T10:30:15;94845.69;;;26.39;52.72
35778;BME280;21899;42.662;23.316;2023-09-18T10:32:44;94840.91;;;26.05;53.43
35778;BME280;21899;42.662;23.316;2023-09-18T10:35:11;94835.53;;;25.87;54.45
35778;BME280;21899;42.662;23.316;2023-09-18T10:37:38;94814.16;;;25.76;55.14
35778;BME280;21899;42.662;23.316;2023-09-18T10:40:05;94828.69;;;26.06;54.25
35778;BME280;21899;42.662;23.316;2023-09-18T10:42:34;94817.03;;;26.11;54.21
35778;BME280;21899;42.662;23.316;2023-09-18T10:45:01;94831.78;;;26.42;52.29
35778;BME280;21899;42.662;23.316;2023-09-18T10:47:30;94831.59;;;26.31;51.75
35778;BME280;21899;42.662;23.316;2023-09-18T10:49:56;94827.72;;;26.23;52.20
35778;BME280;21899;42.662;23.316;2023-09-18T10:52:22;94818.84;;;26.14;51.44
35778;BME280;21899;42.662;23.316;2023-09-18T10:54:47;94817.75;;;25.97;51.37
35778;BME280;21899;42.662;23.316;2023-09-18T10:57:13;94814.38;;;26.02;51.72
35778;BME280;21899;42.662;23.316;2023-09-18T10:59:47;94814.94;;;26.35;51.22
35778;BME280;21899;42.662;23.316;2023-09-18T11:02:16;94813.25;;;26.23;50.80
35778;BME280;21899;42.662;23.316;2023-09-18T11:04:44;94817.72;;;26.06;51.70
35778;BME280;21899;42.662;23.316;2023-09-18T11:07:20;94813.47;;;26.05;51.74
35778;BME280;21899;42.662;23.316;2023-09-18T11:09:45;94804.16;;;25.88;52.36
35778;BME280;21899;42.662;23.316;2023-09-18T11:12:14;94801.88;;;25.72;51.96
35778;BME280;21899;42.662;23.316;2023-09-18T11:17:05;94783.72;;;25.74;52.63
35778;BME280;21899;42.662;23.316;2023-09-18T11:19:31;94786.16;;;25.87;52.05
35778;BME280;21899;42.662;23.316;2023-09-18T11:22:07;94789.66;;;25.58;52.67
35778;BME280;21899;42.662;23.316;2023-09-18T11:24:35;94784.91;;;25.58;52.46
35778;BME280;21899;42.662;23.316;2023-09-18T11:27:00;94784.25;;;25.63;52.46
35778;BME280;21899;42.662;23.316;2023-09-18T11:29:26;94780.22;;;25.88;52.51
35778;BME280;21899;42.662;23.316;2023-09-18T11:31:55;94773.25;;;26.02;51.51
35778;BME280;21899;42.662;23.316;2023-09-18T11:34:28;94788.56;;;26.23;51.39
35778;BME280;21899;42.662;23.316;2023-09-18T11:36:57;94780.59;;;26.25;50.43
35778;BME280;21899;42.662;23.316;2023-09-18T11:39:36;94784.63;;;26.44;49.91
35778;BME280;21899;42.662;23.316;2023-09-18T11:44:38;94765.75;;;26.66;48.77
35778;BME280;21899;42.662;23.316;2023-09-18T11:47:14;94762.53;;;26.53;48.50
35778;BME280;21899;42.662;23.316;2023-09-18T11:52:18;94757.22;;;26.29;49.09
35778;BME280;21899;42.662;23.316;2023-09-18T11:54:45;94757.97;;;26.44;48.58
35778;BME280;21899;42.662;23.316;2023-09-18T11:57:12;94761.88;;;26.58;48.61
35778;BME280;21899;42.662;23.316;2023-09-18T11:59:40;94764.06;;;26.68;44.24
35778;BME280;21899;42.662;23.316;2023-09-18T12:02:08;94749.84;;;26.70;43.80
35778;BME280;21899;42.662;23.316;2023-09-18T12:04:34;94752.72;;;27.01;43.78
35778;BME280;21899;42.662;23.316;2023-09-18T12:07:00;94748.72;;;27.22;42.46
35778;BME280;21899;42.662;23.316;2023-09-18T12:09:31;94752.44;;;27.19;42.30
35778;BME280;21899;42.662;23.316;2023-09-18T12:11:58;94755.59;;;27.52;41.66
35778;BME280;21899;42.662;23.316;2023-09-18T12:14:30;94753.22;;;27.40;42.16
35778;BME280;21899;42.662;23.316;2023-09-18T12:16:56;94751.97;;;27.41;41.22
35778;BME280;21899;42.662;23.316;2023-09-18T12:19:22;94755.47;;;27.21;41.95
35778;BME280;21899;42.662;23.316;2023-09-18T12:21:48;94748.28;;;27.04;42.67
35778;BME280;21899;42.662;23.316;2023-09-18T12:24:24;94746.47;;;27.21;42.36
35778;BME280;21899;42.662;23.316;2023-09-18T12:26:51;94743.69;;;27.61;41.88
35778;BME280;21899;42.662;23.316;2023-09-18T12:29:17;94739.47;;;27.65;41.24
35778;BME280;21899;42.662;23.316;2023-09-18T12:31:43;94738.59;;;27.28;43.37
35778;BME280;21899;42.662;23.316;2023-09-18T12:34:18;94749.03;;;26.84;45.14
35778;BME280;21899;42.662;23.316;2023-09-18T12:36:45;94742.66;;;26.72;45.30
35778;BME280;21899;42.662;23.316;2023-09-18T12:39:14;94737.91;;;26.73;45.38
35778;BME280;21899;42.662;23.316;2023-09-18T12:41:44;94746.50;;;26.46;45.86
35778;BME280;21899;42.662;23.316;2023-09-18T12:44:10;94752.91;;;26.23;47.20
35778;BME280;21899;42.662;23.316;2023-09-18T12:46:36;94743.75;;;26.31;46.32
35778;BME280;21899;42.662;23.316;2023-09-18T12:49:35;94751.25;;;26.31;46.44
35778;BME280;21899;42.662;23.316;2023-09-18T12:52:01;94744.66;;;26.08;47.04
35778;BME280;21899;42.662;23.316;2023-09-18T12:54:42;94742.41;;;26.21;47.34